createdAt,value
2023-01-06T00:01:17.552Z,7.00
2023-01-06T00:03:44.379Z,4.60
2023-01-06T00:06:12.527Z,7.88
2023-01-06T00:08:40.682Z,5.55
2023-01-06T00:11:09.009Z,5.30
2023-01-06T00:13:35.771Z,4.97
2023-01-06T00:16:07.473Z,5.28
2023-01-06T00:18:34.681Z,6.22
2023-01-06T00:21:01.902Z,11.07
2023-01-06T00:23:28.450Z,6.72
2023-01-06T00:25:54.999Z,7.25
2023-01-06T00:28:21.406Z,6.72
2023-01-06T00:30:48.093Z,4.85
2023-01-06T00:33:14.521Z,8.52
2023-01-06T00:35:41.057Z,6.95
2023-01-06T00:38:07.661Z,7.63
2023-01-06T00:40:34.031Z,9.45
2023-01-06T00:43:00.491Z,5.25
2023-01-06T00:45:27.151Z,4.45
2023-01-06T00:47:53.553Z,6.13
2023-01-06T00:50:19.993Z,7.55
2023-01-06T00:52:48.195Z,5.07
2023-01-06T00:55:15.724Z,5.38
2023-01-06T00:57:42.334Z,4.63
2023-01-06T01:00:10.013Z,6.18
2023-01-06T01:02:36.619Z,4.32
2023-01-06T01:05:03.174Z,6.60
2023-01-06T01:07:30.011Z,7.32
2023-01-06T01:09:57.683Z,6.18
2023-01-06T01:12:24.084Z,7.05
2023-01-06T01:14:53.862Z,5.22
2023-01-06T01:17:29.602Z,6.03
2023-01-06T01:19:59.082Z,5.32
2023-01-06T01:22:29.822Z,3.58
2023-01-06T01:24:56.700Z,4.88
2023-01-06T01:27:23.106Z,4.15
2023-01-06T01:29:49.561Z,6.20
2023-01-06T01:32:16.056Z,4.65
2023-01-06T01:34:42.589Z,4.57
2023-01-06T01:37:09.299Z,4.72
2023-01-06T01:39:35.741Z,4.22
2023-01-06T01:42:04.202Z,5.57
2023-01-06T01:44:54.321Z,6.03
2023-01-06T01:47:35.744Z,4.22
2023-01-06T01:50:08.251Z,5.35
2023-01-06T01:52:35.673Z,6.15
2023-01-06T01:55:04.000Z,6.90
2023-01-06T01:57:37.392Z,4.97
2023-01-06T02:00:07.620Z,4.75
2023-01-06T02:02:41.292Z,5.55
2023-01-06T02:05:08.924Z,4.90
2023-01-06T02:07:36.681Z,5.38
2023-01-06T02:10:10.783Z,7.13
2023-01-06T02:12:37.761Z,6.30
2023-01-06T02:15:14.902Z,4.35
2023-01-06T02:18:17.901Z,6.60
2023-01-06T02:20:57.593Z,4.95
2023-01-06T02:23:24.235Z,4.18
2023-01-06T02:26:06.527Z,5.90
2023-01-06T02:29:04.179Z,4.70
2023-01-06T02:31:42.841Z,4.68
2023-01-06T02:34:55.615Z,5.63
2023-01-06T02:38:03.854Z,4.60
2023-01-06T02:40:36.119Z,4.75
2023-01-06T02:43:25.194Z,5.10
2023-01-06T02:46:15.163Z,5.70
2023-01-06T02:49:15.573Z,5.40
2023-01-06T02:51:52.491Z,4.28
2023-01-06T02:54:34.116Z,4.35
2023-01-06T02:57:11.885Z,4.20
2023-01-06T02:59:47.010Z,3.80
2023-01-06T03:02:13.987Z,3.45
2023-01-06T03:04:46.449Z,3.67
2023-01-06T03:07:15.400Z,2.63
2023-01-06T03:09:42.263Z,3.20
2023-01-06T03:12:23.906Z,2.97
2023-01-06T03:14:54.029Z,2.53
2023-01-06T03:17:22.152Z,2.50
2023-01-06T03:19:48.774Z,2.80
2023-01-06T03:22:17.704Z,3.38
2023-01-06T03:24:45.205Z,2.70
2023-01-06T03:27:12.376Z,2.72
2023-01-06T03:29:40.003Z,2.78
2023-01-06T03:32:23.342Z,2.28
2023-01-06T03:35:05.373Z,3.20
2023-01-06T03:37:42.999Z,3.35
2023-01-06T03:40:19.195Z,3.90
2023-01-06T03:43:09.924Z,2.83
2023-01-06T03:46:05.588Z,3.75
2023-01-06T03:48:46.619Z,3.20
2023-01-06T03:51:46.430Z,2.92
2023-01-06T03:54:38.987Z,3.45
2023-01-06T03:57:09.529Z,3.13
2023-01-06T03:59:44.916Z,3.03
2023-01-06T04:02:13.395Z,3.88
2023-01-06T04:04:40.897Z,3.88
2023-01-06T04:07:07.771Z,3.13
2023-01-06T04:09:38.321Z,3.10
2023-01-06T04:12:23.940Z,3.20
2023-01-06T04:14:52.658Z,4.03
2023-01-06T04:17:19.062Z,3.05
2023-01-06T04:19:45.947Z,2.92
2023-01-06T04:22:13.042Z,2.67
2023-01-06T04:24:39.521Z,2.53
2023-01-06T04:27:06.775Z,2.42
2023-01-06T04:29:33.908Z,2.50
2023-01-06T04:32:00.258Z,2.03
2023-01-06T04:34:27.042Z,1.85
2023-01-06T04:36:54.517Z,2.55
2023-01-06T04:39:21.452Z,1.80
2023-01-06T04:41:47.922Z,1.67
2023-01-06T04:44:14.469Z,1.60
2023-01-06T04:46:40.863Z,1.40
2023-01-06T04:49:07.472Z,1.50
2023-01-06T04:51:34.381Z,1.10
2023-01-06T04:54:00.843Z,1.70
2023-01-06T04:56:27.218Z,1.27
2023-01-06T04:58:55.395Z,1.55
2023-01-06T05:01:22.511Z,1.80
2023-01-06T05:03:49.081Z,2.75
2023-01-06T05:06:16.230Z,1.52
2023-01-06T05:08:43.996Z,1.30
2023-01-06T05:11:13.043Z,1.30
2023-01-06T05:13:39.815Z,0.98
2023-01-06T05:16:08.926Z,1.40
2023-01-06T05:18:35.798Z,1.13
2023-01-06T05:21:02.703Z,1.33
2023-01-06T05:23:29.151Z,1.25
2023-01-06T05:25:55.547Z,1.20
2023-01-06T05:28:22.037Z,1.52
2023-01-06T05:30:48.501Z,1.67
2023-01-06T05:33:15.092Z,1.83
2023-01-06T05:35:41.539Z,1.83
2023-01-06T05:38:07.989Z,1.10
2023-01-06T05:40:35.284Z,2.10
2023-01-06T05:43:01.690Z,1.38
2023-01-06T05:45:28.091Z,1.35
2023-01-06T05:47:54.577Z,1.67
2023-01-06T05:50:20.964Z,1.05
2023-01-06T05:52:50.103Z,2.60
2023-01-06T05:55:16.630Z,1.42
2023-01-06T05:57:43.017Z,2.97
2023-01-06T06:00:10.137Z,2.03
2023-01-06T06:02:39.741Z,2.03
2023-01-06T06:05:06.451Z,1.20
2023-01-06T06:07:32.841Z,1.67
2023-01-06T06:09:59.229Z,1.33
2023-01-06T06:12:25.627Z,1.55
2023-01-06T06:14:52.209Z,1.92
2023-01-06T06:17:18.660Z,1.50
2023-01-06T06:19:45.041Z,1.70
2023-01-06T06:22:11.408Z,1.20
2023-01-06T06:24:37.859Z,3.00
2023-01-06T06:27:04.383Z,1.35
2023-01-06T06:29:30.731Z,1.50
2023-01-06T06:31:57.180Z,1.67
2023-01-06T06:34:23.944Z,2.05
2023-01-06T06:36:50.387Z,1.33
2023-01-06T06:39:17.009Z,1.83
2023-01-06T06:41:43.441Z,1.95
2023-01-06T06:44:09.815Z,1.35
2023-01-06T06:46:36.312Z,1.38
2023-01-06T06:49:02.941Z,7.82
2023-01-06T06:51:30.050Z,8.63
2023-01-06T06:53:56.487Z,1.90
2023-01-06T06:56:23.122Z,2.75
2023-01-06T06:58:49.868Z,1.75
2023-01-06T07:01:19.278Z,2.83
2023-01-06T07:03:46.035Z,1.05
2023-01-06T07:06:14.626Z,3.70
2023-01-06T07:08:45.549Z,1.95
2023-01-06T07:11:12.463Z,2.58
2023-01-06T07:13:39.070Z,1.48
2023-01-06T07:16:06.269Z,5.10
2023-01-06T07:18:32.752Z,2.50
2023-01-06T07:20:59.266Z,2.45
2023-01-06T07:23:25.752Z,3.22
2023-01-06T07:25:56.908Z,2.20
2023-01-06T07:28:24.277Z,2.17
2023-01-06T07:30:51.002Z,1.30
2023-01-06T07:33:18.259Z,1.58
2023-01-06T07:35:45.313Z,1.27
2023-01-06T07:38:11.797Z,1.77
2023-01-06T07:40:38.569Z,1.85
2023-01-06T07:43:06.287Z,1.05
2023-01-06T07:45:33.257Z,1.75
2023-01-06T07:48:00.096Z,2.45
2023-01-06T07:50:27.415Z,2.08
2023-01-06T07:52:54.265Z,5.68
2023-01-06T07:55:20.597Z,1.98
2023-01-06T07:57:46.976Z,2.10
2023-01-06T08:00:13.923Z,1.45
2023-01-06T08:02:40.541Z,1.48
2023-01-06T08:05:07.320Z,4.72
2023-01-06T08:07:33.760Z,2.03
2023-01-06T08:10:00.213Z,1.55
2023-01-06T08:12:26.628Z,1.55
2023-01-06T08:14:53.019Z,2.05
2023-01-06T08:17:19.443Z,4.30
2023-01-06T08:19:45.842Z,2.45
2023-01-06T08:22:12.292Z,1.70
2023-01-06T08:24:38.728Z,2.08
2023-01-06T08:27:06.217Z,1.80
2023-01-06T08:29:32.795Z,2.03
2023-01-06T08:32:09.756Z,1.75
2023-01-06T08:34:37.014Z,4.57
2023-01-06T08:37:03.484Z,3.97
2023-01-06T08:39:29.955Z,3.38
2023-01-06T08:41:56.448Z,1.98
2023-01-06T08:44:22.911Z,1.67
2023-01-06T08:46:49.303Z,1.55
2023-01-06T08:49:15.792Z,2.63
2023-01-06T08:51:42.228Z,1.95
2023-01-06T08:54:08.712Z,1.98
2023-01-06T08:56:35.497Z,1.73
2023-01-06T08:59:03.337Z,3.05
2023-01-06T09:01:32.707Z,1.58
2023-01-06T09:04:01.357Z,2.88
2023-01-06T09:06:28.639Z,2.30
2023-01-06T09:08:56.814Z,2.03
2023-01-06T09:11:24.042Z,3.42
2023-01-06T09:13:50.917Z,1.98
2023-01-06T09:16:18.505Z,1.98
2023-01-06T09:18:49.478Z,1.60
2023-01-06T09:21:18.011Z,1.77
2023-01-06T09:23:44.910Z,2.95
2023-01-06T09:26:12.104Z,1.92
2023-01-06T09:28:38.826Z,1.77
2023-01-06T09:31:05.435Z,2.25
2023-01-06T09:33:34.988Z,2.72
2023-01-06T09:36:01.743Z,1.60
2023-01-06T09:38:28.171Z,2.28
2023-01-06T09:41:05.684Z,3.03
2023-01-06T09:43:50.840Z,2.08
2023-01-06T09:46:21.427Z,2.95
2023-01-06T09:49:21.582Z,1.48
2023-01-06T09:51:48.158Z,1.65
2023-01-06T09:54:29.550Z,1.90
2023-01-06T09:57:06.827Z,2.00
2023-01-06T09:59:56.938Z,1.27
2023-01-06T10:02:31.305Z,2.25
2023-01-06T10:04:57.806Z,1.75
2023-01-06T10:07:33.765Z,2.08
2023-01-06T10:10:22.367Z,1.90
2023-01-06T10:13:22.759Z,1.33
2023-01-06T10:16:07.381Z,1.60
2023-01-06T10:19:11.857Z,1.48
2023-01-06T10:21:47.518Z,3.13
2023-01-06T10:24:28.291Z,2.72
2023-01-06T10:26:59.229Z,1.25
2023-01-06T10:29:32.060Z,4.07
2023-01-06T10:32:00.771Z,2.17
2023-01-06T10:34:28.363Z,2.17
2023-01-06T10:37:10.297Z,1.20
2023-01-06T10:39:38.746Z,1.90
2023-01-06T10:42:55.868Z,1.77
2023-01-06T10:45:25.279Z,2.13
2023-01-06T10:47:52.322Z,1.77
2023-01-06T10:50:19.561Z,1.50
2023-01-06T10:52:47.912Z,2.17
2023-01-06T10:55:32.210Z,2.00
2023-01-06T10:58:05.313Z,1.23
2023-01-06T11:00:32.378Z,1.70
2023-01-06T11:03:32.266Z,1.52
2023-01-06T11:06:23.904Z,2.80
2023-01-06T11:08:50.421Z,3.33
2023-01-06T11:11:28.687Z,1.65
2023-01-06T11:14:00.762Z,1.15
2023-01-06T11:16:31.282Z,2.17
2023-01-06T11:19:02.438Z,1.60
2023-01-06T11:24:14.960Z,1.88
2023-01-06T11:26:56.121Z,2.25
2023-01-06T11:29:28.977Z,2.13
2023-01-06T11:31:57.283Z,2.97
2023-01-06T11:34:28.995Z,1.45
2023-01-06T11:36:55.894Z,1.20
2023-01-06T11:39:34.359Z,2.55
2023-01-06T11:42:11.298Z,1.98
2023-01-06T11:44:40.245Z,1.95
2023-01-06T11:47:23.041Z,2.60
2023-01-06T11:49:53.849Z,1.98
2023-01-06T11:52:31.200Z,1.50
2023-01-06T11:55:21.756Z,1.63
2023-01-06T11:58:02.883Z,1.30
2023-01-06T12:00:36.585Z,4.15
2023-01-06T12:03:15.654Z,2.88
2023-01-06T12:05:54.591Z,3.03
2023-01-06T12:08:52.217Z,2.90
2023-01-06T12:11:44.033Z,1.63
2023-01-06T12:14:27.941Z,3.83
2023-01-06T12:17:18.998Z,2.05
2023-01-06T12:19:48.191Z,2.80
2023-01-06T12:22:41.739Z,2.72
2023-01-06T12:25:27.965Z,3.35
2023-01-06T12:28:04.416Z,1.40
2023-01-06T12:30:51.053Z,1.65
2023-01-06T12:33:27.153Z,1.58
2023-01-06T12:35:57.297Z,2.65
2023-01-06T12:38:36.062Z,2.03
2023-01-06T12:41:09.910Z,1.70
2023-01-06T12:43:41.765Z,1.67
2023-01-06T12:46:21.513Z,1.67
2023-01-06T12:48:53.512Z,1.92
2023-01-06T12:51:30.299Z,1.98
2023-01-06T12:54:04.227Z,2.58
2023-01-06T12:57:08.188Z,1.98
2023-01-06T12:59:46.564Z,1.58
2023-01-06T13:02:36.707Z,2.40
2023-01-06T13:05:11.496Z,2.78
2023-01-06T13:08:08.603Z,2.15
2023-01-06T13:11:03.402Z,2.63
2023-01-06T13:14:10.273Z,1.95
2023-01-06T13:16:56.748Z,2.05
2023-01-06T13:19:32.758Z,2.28
2023-01-06T13:22:01.340Z,2.15
2023-01-06T13:24:52.862Z,3.72
2023-01-06T13:27:29.699Z,2.67
2023-01-06T13:30:21.887Z,2.70
2023-01-06T13:32:57.311Z,5.57
2023-01-06T13:35:39.908Z,1.92
2023-01-06T13:38:31.258Z,1.77
2023-01-06T13:41:01.439Z,2.08
2023-01-06T13:43:30.837Z,1.65
2023-01-06T13:46:10.064Z,2.28
2023-01-06T13:48:41.152Z,2.85
2023-01-06T13:51:11.346Z,4.68
2023-01-06T13:53:40.373Z,2.05
2023-01-06T13:56:12.604Z,1.60
2023-01-06T13:58:46.560Z,2.22
2023-01-06T14:01:30.802Z,2.00
2023-01-06T14:04:44.314Z,2.47
2023-01-06T14:07:11.363Z,2.97
2023-01-06T14:09:45.524Z,1.65
2023-01-06T14:12:23.871Z,4.00
2023-01-06T14:15:05.929Z,1.83
2023-01-06T14:17:40.160Z,2.40
2023-01-06T14:20:23.327Z,1.90
2023-01-06T14:23:05.839Z,3.15
2023-01-06T14:25:39.558Z,2.50
2023-01-06T14:28:08.658Z,2.28
2023-01-06T14:30:36.881Z,1.70
2023-01-06T14:33:08.256Z,1.60
2023-01-06T14:35:43.844Z,1.65
2023-01-06T14:38:42.481Z,1.65
2023-01-06T14:41:29.784Z,1.40
2023-01-06T14:44:05.352Z,1.60
2023-01-06T14:46:38.515Z,1.98
2023-01-06T14:49:12.631Z,1.20
2023-01-06T14:51:43.444Z,1.55
2023-01-06T14:54:25.224Z,2.15
2023-01-06T14:56:53.681Z,3.38
2023-01-06T14:59:22.454Z,1.65
2023-01-06T15:02:04.868Z,2.95
2023-01-06T15:04:35.320Z,5.57
2023-01-06T15:07:05.666Z,2.28
2023-01-06T15:09:32.453Z,1.65
2023-01-06T15:11:59.458Z,2.08
2023-01-06T15:14:28.922Z,2.33
2023-01-06T15:16:57.029Z,2.28
2023-01-06T15:19:24.366Z,2.15
2023-01-06T15:21:53.200Z,1.70
2023-01-06T15:24:25.210Z,4.63
2023-01-06T15:26:53.669Z,1.90
2023-01-06T15:29:23.055Z,1.88
2023-01-06T15:31:51.325Z,1.83
2023-01-06T15:34:27.087Z,1.90
2023-01-06T15:36:55.592Z,2.33
2023-01-06T15:39:27.153Z,2.15
2023-01-06T15:41:55.046Z,1.80
2023-01-06T15:44:33.491Z,1.88
2023-01-06T15:47:12.126Z,2.13
2023-01-06T15:49:48.932Z,1.67
2023-01-06T15:52:26.428Z,1.80
2023-01-06T15:54:55.481Z,1.50
2023-01-06T15:57:22.769Z,2.03
2023-01-06T16:00:02.817Z,1.30
2023-01-06T16:02:33.835Z,2.22
2023-01-06T16:05:00.903Z,2.22
2023-01-06T16:07:41.106Z,2.60
2023-01-06T16:10:30.847Z,1.98
2023-01-06T16:13:23.335Z,2.95
2023-01-06T16:16:19.389Z,1.70
2023-01-06T16:18:46.497Z,1.73
2023-01-06T16:21:20.101Z,2.13
2023-01-06T16:23:49.759Z,1.88
2023-01-06T16:26:19.229Z,2.00
2023-01-06T16:28:49.873Z,1.63
2023-01-06T16:31:34.039Z,1.92
2023-01-06T16:34:22.408Z,1.85
2023-01-06T16:36:50.211Z,1.70
2023-01-06T16:39:17.219Z,2.22
2023-01-06T16:41:59.888Z,3.80
2023-01-06T16:44:29.711Z,1.85
2023-01-06T16:47:00.081Z,1.90
2023-01-06T16:49:26.646Z,1.98
2023-01-06T16:51:54.636Z,5.30
2023-01-06T16:54:23.975Z,2.15
2023-01-06T16:56:51.993Z,4.20
2023-01-06T16:59:19.940Z,3.70
2023-01-06T17:01:47.938Z,2.80
2023-01-06T17:04:15.231Z,2.78
2023-01-06T17:06:43.693Z,2.53
2023-01-06T17:09:21.594Z,2.72
2023-01-06T17:11:49.731Z,2.50
2023-01-06T17:14:21.784Z,2.50
2023-01-06T17:16:49.186Z,2.58
2023-01-06T17:19:25.250Z,4.57
2023-01-06T17:22:06.404Z,2.47
2023-01-06T17:24:32.947Z,2.30
2023-01-06T17:27:20.749Z,3.08
2023-01-06T17:29:47.830Z,3.00
2023-01-06T17:32:19.701Z,4.55
2023-01-06T17:34:46.217Z,3.38
2023-01-06T17:37:22.540Z,2.50
2023-01-06T17:39:49.753Z,2.60
2023-01-06T17:42:16.068Z,2.30
2023-01-06T17:44:46.696Z,2.90
2023-01-06T17:47:15.925Z,3.58
2023-01-06T17:49:51.980Z,3.72
2023-01-06T17:52:22.358Z,2.42
2023-01-06T17:55:13.573Z,2.50
2023-01-06T17:57:41.809Z,2.95
2023-01-06T18:00:35.266Z,2.45
2023-01-06T18:03:06.686Z,2.13
2023-01-06T18:05:35.817Z,2.58
2023-01-06T18:08:13.469Z,3.67
2023-01-06T18:10:44.662Z,3.67
2023-01-06T18:13:21.578Z,2.85
2023-01-06T18:15:52.024Z,2.05
2023-01-06T18:18:18.451Z,3.40
2023-01-06T18:20:53.768Z,2.58
2023-01-06T18:23:23.962Z,4.88
2023-01-06T18:25:56.314Z,2.67
2023-01-06T18:28:23.333Z,2.75
2023-01-06T18:30:55.883Z,5.20
2023-01-06T18:33:22.691Z,2.80
2023-01-06T18:35:57.336Z,2.75
2023-01-06T18:38:29.811Z,3.25
2023-01-06T18:40:56.270Z,2.95
2023-01-06T18:43:30.072Z,2.30
2023-01-06T18:46:15.111Z,3.22
2023-01-06T18:48:42.337Z,2.47
2023-01-06T18:51:26.811Z,2.53
2023-01-06T18:53:53.180Z,2.72
2023-01-06T18:56:23.110Z,2.00
2023-01-06T18:58:57.108Z,3.00
2023-01-06T19:01:29.476Z,2.67
2023-01-06T19:04:29.111Z,3.97
2023-01-06T19:07:01.826Z,3.08
2023-01-06T19:09:38.296Z,2.65
2023-01-06T19:12:07.576Z,2.33
2023-01-06T19:14:38.467Z,2.65
2023-01-06T19:17:30.484Z,2.33
2023-01-06T19:20:01.009Z,4.93
2023-01-06T19:22:29.998Z,4.30
2023-01-06T19:25:27.785Z,2.90
2023-01-06T19:27:56.041Z,3.08
2023-01-06T19:30:45.112Z,4.10
2023-01-06T19:33:34.800Z,3.85
2023-01-06T19:36:04.421Z,2.45
2023-01-06T19:38:41.664Z,3.17
2023-01-06T19:41:29.846Z,3.22
2023-01-06T19:44:05.414Z,3.00
2023-01-06T19:46:38.387Z,3.08
2023-01-06T19:51:49.083Z,4.45
2023-01-06T19:54:28.669Z,3.03
2023-01-06T19:56:56.162Z,3.13
2023-01-06T19:59:33.251Z,3.03
2023-01-06T20:02:20.265Z,3.00
2023-01-06T20:04:46.830Z,3.20
2023-01-06T20:07:13.210Z,3.67
2023-01-06T20:09:39.793Z,3.78
2023-01-06T20:12:06.404Z,3.35
2023-01-06T20:14:32.864Z,3.30
2023-01-06T20:17:00.181Z,2.75
2023-01-06T20:19:26.635Z,3.85
2023-01-06T20:21:53.048Z,3.38
2023-01-06T20:24:19.539Z,4.35
2023-01-06T20:26:45.914Z,3.60
2023-01-06T20:29:12.303Z,3.63
2023-01-06T20:31:38.807Z,3.45
2023-01-06T20:34:05.319Z,3.80
2023-01-06T20:36:31.862Z,3.70
2023-01-06T20:38:58.445Z,4.03
2023-01-06T20:41:24.885Z,5.22
2023-01-06T20:43:51.281Z,3.92
2023-01-06T20:46:17.700Z,4.25
2023-01-06T20:48:44.292Z,4.03
2023-01-06T20:51:10.651Z,3.15
2023-01-06T20:53:37.279Z,5.45
2023-01-06T20:56:03.896Z,4.53
2023-01-06T20:58:30.407Z,4.47
2023-01-06T21:00:56.917Z,3.83
2023-01-06T21:03:23.357Z,3.00
2023-01-06T21:05:49.744Z,3.50
2023-01-06T21:08:16.270Z,4.35
2023-01-06T21:10:42.621Z,5.43
2023-01-06T21:13:09.059Z,3.28
2023-01-06T21:15:35.455Z,4.00
2023-01-06T21:18:02.066Z,4.30
2023-01-06T21:20:28.410Z,3.63
2023-01-06T21:22:54.815Z,3.78
2023-01-06T21:25:21.185Z,4.38
2023-01-06T21:27:47.595Z,3.20
2023-01-06T21:30:14.611Z,3.65
2023-01-06T21:32:41.058Z,4.25
2023-01-06T21:35:07.791Z,4.03
2023-01-06T21:37:34.272Z,4.57
2023-01-06T21:40:00.943Z,4.03
2023-01-06T21:42:47.697Z,3.30
2023-01-06T21:45:14.182Z,2.90
2023-01-06T21:47:40.499Z,2.90
2023-01-06T21:50:08.773Z,3.50
2023-01-06T21:52:36.618Z,3.15
2023-01-06T21:55:03.429Z,3.67
2023-01-06T21:57:29.913Z,3.42
2023-01-06T21:59:56.284Z,3.17
2023-01-06T22:02:22.775Z,3.47
2023-01-06T22:04:52.263Z,3.95
2023-01-06T22:07:19.649Z,3.58
2023-01-06T22:09:46.109Z,4.03
2023-01-06T22:12:15.686Z,4.00
2023-01-06T22:14:43.352Z,4.68
2023-01-06T22:17:09.977Z,3.33
2023-01-06T22:19:38.076Z,3.55
2023-01-06T22:22:05.386Z,4.38
2023-01-06T22:24:33.673Z,4.15
2023-01-06T22:27:00.096Z,3.22
2023-01-06T22:29:26.495Z,3.15
2023-01-06T22:31:53.118Z,3.45
2023-01-06T22:34:20.178Z,3.05
2023-01-06T22:36:46.529Z,3.42
2023-01-06T22:39:12.974Z,3.85
2023-01-06T22:41:39.341Z,2.92
2023-01-06T22:44:06.922Z,3.80
2023-01-06T22:46:33.326Z,4.18
2023-01-06T22:48:59.783Z,3.53
2023-01-06T22:51:28.374Z,3.80
2023-01-06T22:53:54.983Z,3.80
2023-01-06T22:56:21.535Z,2.75
2023-01-06T22:58:47.979Z,2.78
2023-01-06T23:01:14.564Z,3.65
2023-01-06T23:03:41.049Z,4.13
2023-01-06T23:06:10.952Z,3.78
2023-01-06T23:08:48.000Z,3.22
2023-01-06T23:11:22.372Z,3.85
2023-01-06T23:13:49.163Z,3.50
2023-01-06T23:16:22.548Z,2.90
2023-01-06T23:18:49.740Z,3.28
2023-01-06T23:21:22.401Z,2.92
2023-01-06T23:23:49.824Z,3.17
2023-01-06T23:26:18.461Z,3.20
2023-01-06T23:28:45.685Z,3.42
2023-01-06T23:31:18.006Z,3.00
2023-01-06T23:33:47.302Z,4.40
2023-01-06T23:36:16.023Z,2.97
2023-01-06T23:38:43.552Z,3.15
2023-01-06T23:41:12.770Z,3.35
2023-01-06T23:43:39.689Z,3.45
2023-01-06T23:46:12.249Z,3.10
2023-01-06T23:48:39.012Z,3.00
2023-01-06T23:51:06.901Z,3.47
2023-01-06T23:53:34.368Z,3.28
2023-01-06T23:56:10.315Z,3.22
2023-01-06T23:58:38.317Z,3.05
